Orbital elements of COSMOS 2251 DEB
| Launched | 15 June 1993 |
| Flight ended | – |
| Launch site | Plesetsk Missile and Space Complex, Russia |
| Owner | Commonwealth of Independent States (former USSR) |
| NORAD ID | 34998 |
| Date fetched |
Epoch osculation |
Inc. [°] |
Ecc. | RA asc node [hr] |
Arg Peri. [°] |
Mean anom [°] |
Mean motion [rev/day] |
Abs. mag |
| Date fetched |
Epoch osculation |
Inc. [°] |
Ecc. | RA asc node [hr] |
Arg Peri. [°] |
Mean anom [°] |
Mean motion [rev/day] |
Abs. mag |
| 2026 May 09 17:57 | 2026 May 05 08:10:53 | 74.0097 | 0.00208 | 16.6707 | 0.7606 | 31.6721 | 14.49922 | – |
| 2026 May 08 17:57 | 2026 May 05 08:10:53 | 74.0097 | 0.00208 | 16.6707 | 0.7606 | 31.6721 | 14.49922 | – |
| 2026 May 07 17:58 | 2026 May 05 08:10:53 | 74.0097 | 0.00208 | 16.6707 | 0.7606 | 31.6721 | 14.49922 | – |
| 2026 May 06 17:57 | 2026 May 05 08:10:53 | 74.0097 | 0.00208 | 16.6707 | 0.7606 | 31.6721 | 14.49922 | – |
| 2026 May 05 17:57 | 2026 May 05 08:10:53 | 74.0097 | 0.00208 | 16.6707 | 0.7606 | 31.6721 | 14.49922 | – |
| 2026 May 04 17:57 | 2026 Apr 30 15:30:00 | 74.0092 | 0.00206 | 17.2593 | 11.0665 | 31.6721 | 14.49922 | – |
| 2026 May 03 17:57 | 2026 Apr 30 15:30:00 | 74.0092 | 0.00206 | 17.2593 | 11.0665 | 31.6721 | 14.49922 | – |
| 2026 May 02 17:57 | 2026 Apr 30 15:30:00 | 74.0092 | 0.00206 | 17.2593 | 11.0665 | 31.6721 | 14.49922 | – |
| 2026 May 01 17:56 | 2026 Apr 30 15:30:00 | 74.0092 | 0.00206 | 17.2593 | 11.0665 | 31.6721 | 14.49922 | – |
| 2026 Apr 30 17:56 | 2026 Apr 30 15:30:00 | 74.0092 | 0.00206 | 17.2593 | 11.0665 | 31.6721 | 14.49922 | – |
| 2026 Apr 29 17:57 | 2026 Apr 23 03:28:16 | 74.0088 | 0.00204 | 18.1998 | 27.5990 | 31.6721 | 14.49922 | – |
| 2026 Apr 28 17:56 | 2026 Apr 23 03:28:16 | 74.0088 | 0.00204 | 18.1998 | 27.5990 | 31.6721 | 14.49922 | – |
| 2026 Apr 27 17:58 | 2026 Apr 23 03:28:16 | 74.0088 | 0.00204 | 18.1998 | 27.5990 | 31.6721 | 14.49922 | – |
| 2026 Apr 26 17:58 | 2026 Apr 23 03:28:16 | 74.0088 | 0.00204 | 18.1998 | 27.5990 | 31.6721 | 14.49922 | – |
| 2026 Apr 25 17:58 | 2026 Apr 23 03:28:16 | 74.0088 | 0.00204 | 18.1998 | 27.5990 | 31.6721 | 14.49922 | – |
| 2026 Apr 24 17:59 | 2026 Apr 23 03:28:16 | 74.0088 | 0.00204 | 18.1998 | 27.5990 | 31.6721 | 14.49922 | – |
| 2026 Apr 23 17:57 | 2026 Apr 18 18:40:18 | 74.0086 | 0.00203 | 18.7472 | 37.2239 | 31.6721 | 14.49922 | – |
| 2026 Apr 22 17:57 | 2026 Apr 18 18:40:18 | 74.0086 | 0.00203 | 18.7472 | 37.2239 | 31.6721 | 14.49922 | – |
| 2026 Apr 21 17:57 | 2026 Apr 18 18:40:18 | 74.0086 | 0.00203 | 18.7472 | 37.2239 | 31.6721 | 14.49922 | – |
| 2026 Apr 20 17:57 | 2026 Apr 18 18:40:18 | 74.0086 | 0.00203 | 18.7472 | 37.2239 | 31.6721 | 14.49922 | – |
| 2026 Apr 19 17:58 | 2026 Apr 18 18:40:18 | 74.0086 | 0.00203 | 18.7472 | 37.2239 | 31.6721 | 14.49922 | – |
| 2026 Apr 18 17:56 | 2026 Apr 13 06:56:45 | 74.0088 | 0.00202 | 19.4353 | 49.2719 | 31.6721 | 14.49922 | – |
| 2026 Apr 16 17:57 | 2026 Apr 13 06:56:45 | 74.0088 | 0.00202 | 19.4353 | 49.2719 | 31.6721 | 14.49922 | – |
| 2026 Apr 14 17:57 | 2026 Apr 13 06:56:45 | 74.0088 | 0.00202 | 19.4353 | 49.2719 | 31.6721 | 14.49922 | – |
| 2026 Apr 13 17:57 | 2026 Apr 13 06:56:45 | 74.0088 | 0.00202 | 19.4353 | 49.2719 | 31.6721 | 14.49922 | – |
| 2026 Apr 12 17:57 | 2026 Apr 08 07:43:20 | 74.0101 | 0.00201 | 20.0581 | 60.3126 | 31.6721 | 14.49922 | – |